Time;durP1;ratioP1;P1;durP2;ratioP2;P2;SDS_P1;SDS_P2;PMS_P1;PMS_P2;Temp;Humidity;BMP_temperature;BMP_pressure;BME280_temperature;BME280_humidity;BME280_pressure;Samples;Min_cycle;Max_cycle;Signal;HPM_P1;HPM_P2
2021/05/04 00:01:19;;;;;;;;;13.75;9.75;;;;;14.72;47.66;98574.81;4776463;29;103036;-76
2021/05/04 00:03:46;;;;;;;;;12.25;10.25;;;;;14.71;48.07;98573.16;4769879;29;107214;-76
2021/05/04 00:06:13;;;;;;;;;15.00;12.00;;;;;14.70;48.05;98568.75;4763505;29;103763;-76
2021/05/04 00:08:39;;;;;;;;;12.75;10.75;;;;;14.71;47.98;98571.28;4726154;29;104693;-76
2021/05/04 00:11:06;;;;;;;;;16.00;12.00;;;;;14.71;47.59;98570.44;4765518;29;102622;-76
2021/05/04 00:13:33;;;;;;;;;12.50;10.25;;;;;14.70;48.20;98574.22;4763430;29;102350;-76
2021/05/04 00:15:59;;;;;;;;;12.00;11.25;;;;;14.70;48.18;98574.22;4778506;29;102210;-76
2021/05/04 00:18:26;;;;;;;;;12.75;11.00;;;;;14.69;47.75;98561.66;4720717;29;104155;-76
2021/05/04 00:20:53;;;;;;;;;11.25;9.25;;;;;14.69;48.03;98564.38;4744552;29;103803;-76
2021/05/04 00:23:20;;;;;;;;;12.00;10.00;;;;;14.69;48.57;98567.09;4789186;29;102508;-76
2021/05/04 00:25:47;;;;;;;;;13.50;11.75;;;;;14.68;48.09;98568.16;4747572;29;103615;-76
2021/05/04 00:28:14;;;;;;;;;14.00;11.25;;;;;14.68;48.21;98568.97;4754517;29;105815;-76
2021/05/04 00:30:53;;;;;;;;;13.25;10.25;;;;;14.68;47.94;98568.97;4764970;29;102214;-76
2021/05/04 00:33:20;;;;;;;;;13.50;11.75;;;;;14.68;47.81;98570.88;4769423;29;102437;-76
2021/05/04 00:35:48;;;;;;;;;11.00;10.75;;;;;14.66;48.26;98565.69;4791254;29;105015;-76
2021/05/04 00:38:15;;;;;;;;;10.25;9.00;;;;;14.66;48.51;98564.84;4770422;29;105963;-75
2021/05/04 00:40:42;;;;;;;;;10.50;10.00;;;;;14.66;48.57;98559.41;4784534;29;102608;-76
2021/05/04 00:43:09;;;;;;;;;11.50;10.50;;;;;14.63;48.17;98551.69;4744851;29;103760;-76
2021/05/04 00:45:39;;;;;;;;;12.00;11.25;;;;;14.64;48.05;98551.44;4772916;29;103074;-76
2021/05/04 00:48:07;;;;;;;;;11.25;8.00;;;;;14.63;48.21;98546.25;4757293;29;108965;-76
2021/05/04 00:50:36;;;;;;;;;12.75;11.00;;;;;14.58;48.50;98540.66;4759772;29;102331;-76
2021/05/04 00:53:06;;;;;;;;;11.00;10.50;;;;;14.63;48.93;98548.97;4762895;29;102231;-76
2021/05/04 00:55:39;;;;;;;;;11.00;8.00;;;;;14.63;48.64;98551.69;4746374;29;102647;-75
2021/05/04 00:58:17;;;;;;;;;13.50;10.75;;;;;14.61;48.31;98534.75;4692865;29;107767;-76
2021/05/04 01:00:52;;;;;;;;;12.25;10.00;;;;;14.61;48.27;98532.88;4740446;29;102338;-76
2021/05/04 01:03:24;;;;;;;;;14.50;10.75;;;;;14.62;48.62;98542.69;4699989;29;106092;-76
2021/05/04 01:05:56;;;;;;;;;15.00;10.25;;;;;14.61;48.61;98532.03;4785232;29;104116;-76
2021/05/04 01:08:25;;;;;;;;;11.00;11.00;;;;;14.60;48.27;98536.63;4760587;29;103770;-76
2021/05/04 01:10:56;;;;;;;;;9.50;8.25;;;;;14.59;48.15;98537.69;4759032;29;102503;-76
2021/05/04 01:13:27;;;;;;;;;9.75;9.00;;;;;14.59;48.51;98543.13;4751597;29;102323;-76
2021/05/04 01:16:00;;;;;;;;;13.00;10.50;;;;;14.59;48.43;98531.44;4752363;29;104357;-76
2021/05/04 01:18:27;;;;;;;;;15.75;12.00;;;;;14.58;48.60;98536.06;4739691;29;106938;-76
2021/05/04 01:20:54;;;;;;;;;14.75;11.25;;;;;14.57;48.32;98528.94;4734193;29;102431;-76
2021/05/04 01:23:21;;;;;;;;;14.75;10.00;;;;;14.57;48.83;98528.09;4766747;29;102716;-76
2021/05/04 01:25:48;;;;;;;;;11.00;9.50;;;;;14.57;48.64;98522.66;4766618;29;102269;-76
2021/05/04 01:28:15;;;;;;;;;13.25;11.00;;;;;14.57;48.46;98522.66;4755107;29;104541;-76
2021/05/04 01:30:42;;;;;;;;;12.50;11.50;;;;;14.56;48.33;98515.56;4773099;29;104142;-76
2021/05/04 01:33:09;;;;;;;;;13.75;10.50;;;;;14.56;48.54;98523.72;4774097;29;102299;-76
2021/05/04 01:35:35;;;;;;;;;10.25;8.50;;;;;14.55;48.72;98509.28;4756511;29;102273;-76
2021/05/04 01:38:02;;;;;;;;;7.00;6.25;;;;;14.55;48.76;98516.63;4751551;29;104104;-76
2021/05/04 01:40:29;;;;;;;;;11.25;8.00;;;;;14.55;48.83;98508.44;4745812;29;102256;-76
2021/05/04 01:42:56;;;;;;;;;10.75;9.25;;;;;14.54;48.97;98517.69;4765528;29;104140;-76
2021/05/04 01:45:23;;;;;;;;;11.00;9.50;;;;;14.54;48.43;98506.81;4762938;29;103903;-76
2021/05/04 01:47:50;;;;;;;;;15.50;13.00;;;;;14.55;48.60;98497.56;4764950;29;103397;-76
2021/05/04 01:50:17;;;;;;;;;13.25;12.25;;;;;14.54;47.99;98501.38;4747660;29;102301;-76
2021/05/04 01:52:44;;;;;;;;;14.50;11.25;;;;;14.53;48.93;98495.09;4767270;29;104144;-75
2021/05/04 01:55:11;;;;;;;;;10.00;9.75;;;;;14.53;48.41;98505.16;4743491;29;102492;-75
2021/05/04 01:57:38;;;;;;;;;11.25;11.00;;;;;14.52;48.38;98498.88;4769372;29;104913;-76
2021/05/04 02:00:06;;;;;;;;;10.75;9.00;;;;;14.51;48.50;98501.81;4767576;29;102076;-76
2021/05/04 02:02:33;;;;;;;;;11.25;11.00;;;;;14.51;48.67;98493.66;4765384;29;103580;-76
2021/05/04 02:05:00;;;;;;;;;12.00;9.75;;;;;14.50;48.00;98490.09;4763623;29;102918;-76
2021/05/04 02:07:27;;;;;;;;;11.00;10.25;;;;;14.51;49.21;98496.38;4744702;29;104536;-76
2021/05/04 02:09:54;;;;;;;;;14.50;9.00;;;;;14.50;48.72;98505.59;4768254;29;102684;-76
2021/05/04 02:12:21;;;;;;;;;9.75;8.00;;;;;14.50;48.70;98497.44;4764489;29;103077;-76
2021/05/04 02:14:50;;;;;;;;;13.50;11.50;;;;;14.48;49.29;98491.38;4767830;29;103493;-76
2021/05/04 02:17:17;;;;;;;;;11.50;11.00;;;;;14.48;49.21;98496.84;4769677;29;102878;-76
2021/05/04 02:19:45;;;;;;;;;13.00;12.00;;;;;14.48;48.99;98502.28;4758399;29;102147;-76
2021/05/04 02:22:12;;;;;;;;;10.50;8.50;;;;;14.47;48.84;98492.44;4765544;29;102438;-76
2021/05/04 02:24:39;;;;;;;;;12.50;10.50;;;;;14.47;48.35;98501.44;4779184;29;102523;-76
2021/05/04 02:27:06;;;;;;;;;9.50;9.25;;;;;14.45;49.09;98483.69;4762381;29;108948;-76
2021/05/04 02:29:33;;;;;;;;;12.25;11.00;;;;;14.45;48.41;98489.97;4766588;29;102476;-76
2021/05/04 02:32:00;;;;;;;;;11.25;8.50;;;;;14.45;49.15;98489.13;4749034;29;102300;-76
2021/05/04 02:34:26;;;;;;;;;11.00;8.00;;;;;14.44;48.61;98480.16;4763290;29;104527;-76
2021/05/04 02:36:53;;;;;;;;;10.00;9.75;;;;;14.44;49.15;98482.03;4751986;29;104167;-76
2021/05/04 02:39:20;;;;;;;;;10.25;8.50;;;;;14.44;49.08;98474.69;4744959;29;103254;-76
2021/05/04 02:41:46;;;;;;;;;9.50;9.00;;;;;14.42;48.75;98476.81;4755021;29;102561;-76
2021/05/04 02:44:13;;;;;;;;;11.00;8.00;;;;;14.42;48.43;98465.09;4736407;29;102652;-76
2021/05/04 02:46:40;;;;;;;;;10.25;7.00;;;;;14.43;49.10;98461.31;4734748;29;103000;-76
2021/05/04 02:49:07;;;;;;;;;16.75;11.75;;;;;14.43;48.91;98466.75;4751577;29;102412;-76
2021/05/04 02:51:34;;;;;;;;;10.75;10.50;;;;;14.43;48.54;98455.88;4737908;29;102489;-76
2021/05/04 02:54:00;;;;;;;;;10.50;7.50;;;;;14.41;49.29;98444.41;4762408;29;106515;-76
2021/05/04 02:56:27;;;;;;;;;12.00;8.75;;;;;14.42;49.00;98446.03;4751503;29;103907;-75
2021/05/04 02:58:54;;;;;;;;;10.25;8.50;;;;;14.42;48.59;98446.03;4735244;29;102629;-76
2021/05/04 03:01:20;;;;;;;;;9.00;7.00;;;;;14.40;48.57;98445.47;4742932;29;102553;-76
2021/05/04 03:03:47;;;;;;;;;12.75;10.00;;;;;14.39;48.69;98432.91;4752658;29;104508;-76
2021/05/04 03:06:14;;;;;;;;;10.00;10.00;;;;;14.40;48.42;98431.84;4746917;29;103018;-76
2021/05/04 03:08:41;;;;;;;;;10.75;9.25;;;;;14.39;49.17;98432.91;4747213;29;103086;-76
2021/05/04 03:11:08;;;;;;;;;10.00;8.00;;;;;14.38;49.21;98423.09;4737313;29;102239;-76
2021/05/04 03:13:34;;;;;;;;;10.25;10.00;;;;;14.36;49.00;98419.78;4755671;29;102866;-76
2021/05/04 03:16:01;;;;;;;;;9.75;9.75;;;;;14.38;48.87;98423.09;4744114;29;104029;-76
2021/05/04 03:18:28;;;;;;;;;10.00;10.00;;;;;14.37;49.22;98418.69;4749794;29;102421;-76
2021/05/04 03:20:55;;;;;;;;;11.00;10.75;;;;;14.37;48.60;98422.25;4732945;29;102742;-76
2021/05/04 03:23:22;;;;;;;;;8.00;7.75;;;;;14.38;49.54;98421.19;4749843;29;102385;-76
2021/05/04 03:25:49;;;;;;;;;9.50;9.00;;;;;14.37;49.22;98405.09;4725784;29;103999;-76
2021/05/04 03:28:16;;;;;;;;;10.25;8.25;;;;;14.36;49.22;98412.47;4753013;29;102106;-76
2021/05/04 03:30:42;;;;;;;;;11.25;10.50;;;;;14.37;48.72;98415.97;4751318;29;103418;-76
2021/05/04 03:33:09;;;;;;;;;9.75;9.75;;;;;14.36;49.11;98423.34;4757423;29;102724;-76
2021/05/04 03:35:36;;;;;;;;;9.00;7.75;;;;;14.35;49.30;98407.19;4744196;29;108916;-75
2021/05/04 03:38:03;;;;;;;;;10.00;8.00;;;;;14.36;48.72;98411.63;4769477;29;102346;-76
2021/05/04 03:40:30;;;;;;;;;11.00;8.00;;;;;14.35;48.54;98415.38;4756345;29;102580;-76
2021/05/04 03:42:58;;;;;;;;;10.50;7.25;;;;;14.35;48.82;98410.75;4766142;29;103568;-76
2021/05/04 03:45:24;;;;;;;;;11.25;8.00;;;;;14.36;49.25;98407.03;4758210;29;104498;-76
2021/05/04 03:47:51;;;;;;;;;9.50;8.25;;;;;14.35;48.93;98405.31;4765137;29;103677;-76
2021/05/04 03:50:21;;;;;;;;;7.25;7.25;;;;;14.32;48.66;98390.28;4750731;29;104508;-76
2021/05/04 03:52:49;;;;;;;;;11.00;8.00;;;;;14.35;49.35;98394.44;4742301;29;102108;-76
2021/05/04 03:55:15;;;;;;;;;8.25;8.25;;;;;14.35;49.10;98397.16;4743717;29;103975;-76
2021/05/04 03:57:42;;;;;;;;;10.00;7.50;;;;;14.34;48.52;98397.38;4770649;29;103587;-76
2021/05/04 04:00:11;;;;;;;;;10.25;8.75;;;;;14.35;48.75;98396.31;4775682;29;103216;-76
2021/05/04 04:02:41;;;;;;;;;11.00;9.75;;;;;14.34;48.70;98400.94;4784149;29;102397;-76
2021/05/04 04:05:13;;;;;;;;;8.25;8.25;;;;;14.34;48.91;98400.09;4762570;29;108791;-76
2021/05/04 04:07:45;;;;;;;;;11.00;8.50;;;;;14.34;49.19;98402.81;4712291;29;103907;-76
2021/05/04 04:10:15;;;;;;;;;10.00;8.50;;;;;14.34;49.52;98397.38;4760563;29;102879;-76
2021/05/04 04:12:54;;;;;;;;;8.25;7.25;;;;;14.32;49.15;98403.03;4770048;29;102916;-76
2021/05/04 04:15:23;;;;;;;;;7.75;7.75;;;;;14.32;48.60;98404.94;4762423;29;103121;-76
2021/05/04 04:17:49;;;;;;;;;6.50;6.25;;;;;14.32;49.35;98399.50;4765731;29;102382;-76
2021/05/04 04:20:16;;;;;;;;;7.75;6.75;;;;;14.29;48.85;98395.34;4753354;29;103111;-76
2021/05/04 04:22:43;;;;;;;;;10.00;8.25;;;;;14.29;49.33;98404.34;4759705;29;103561;-76
2021/05/04 04:25:10;;;;;;;;;10.50;7.00;;;;;14.28;48.71;98399.94;4764284;29;103843;-76
2021/05/04 04:27:37;;;;;;;;;8.00;7.00;;;;;14.28;48.87;98394.50;4765119;29;103523;-75
2021/05/04 04:30:04;;;;;;;;;10.00;9.00;;;;;14.32;48.69;98399.50;4764998;29;103716;-75
2021/05/04 04:32:31;;;;;;;;;7.25;5.75;;;;;14.32;48.66;98396.78;4756907;29;102689;-76
2021/05/04 04:34:59;;;;;;;;;10.50;9.00;;;;;14.32;49.37;98393.00;4764761;29;103764;-75
2021/05/04 04:37:26;;;;;;;;;8.25;7.00;;;;;14.34;49.36;98386.50;4764968;29;102584;-75
2021/05/04 04:39:52;;;;;;;;;10.00;7.75;;;;;14.32;48.55;98390.28;4749669;29;102605;-75
2021/05/04 04:42:19;;;;;;;;;9.00;7.75;;;;;14.32;48.33;98387.56;4755361;29;103667;-76
2021/05/04 04:44:46;;;;;;;;;9.00;7.50;;;;;14.34;48.48;98378.34;4752476;29;104273;-75
2021/05/04 04:47:13;;;;;;;;;6.25;6.25;;;;;14.34;49.05;98387.34;4753847;29;105281;-76
2021/05/04 04:49:40;;;;;;;;;8.75;8.00;;;;;14.34;48.76;98378.34;4752798;29;102614;-76
2021/05/04 04:52:07;;;;;;;;;9.75;8.50;;;;;14.32;49.02;98382.09;4747727;29;103279;-76
2021/05/04 04:54:34;;;;;;;;;8.00;7.00;;;;;14.35;48.87;98382.72;4736163;29;107104;-75
2021/05/04 04:57:01;;;;;;;;;11.75;7.50;;;;;14.34;48.72;98383.78;4765036;29;102640;-75
2021/05/04 04:59:27;;;;;;;;;11.00;8.25;;;;;14.35;49.18;98380.84;4756623;29;102837;-75
2021/05/04 05:01:54;;;;;;;;;7.75;5.25;;;;;14.35;49.10;98383.56;4764236;29;102280;-76
2021/05/04 05:04:21;;;;;;;;;10.00;8.00;;;;;14.35;48.36;98377.28;4736852;29;104251;-75
2021/05/04 05:06:48;;;;;;;;;10.50;10.00;;;;;14.34;48.31;98365.56;4744752;29;102549;-75
2021/05/04 05:09:14;;;;;;;;;10.75;7.75;;;;;14.35;49.10;98372.69;4741308;29;104010;-75
2021/05/04 05:11:41;;;;;;;;;9.25;6.00;;;;;14.34;48.54;98356.56;4755229;29;102585;-75
2021/05/04 05:14:08;;;;;;;;;9.50;7.75;;;;;14.37;48.64;98367.00;4784484;29;109029;-75
2021/05/04 05:16:36;;;;;;;;;10.50;9.75;;;;;14.35;48.64;98350.91;4750761;29;104574;-75
2021/05/04 05:19:04;;;;;;;;;10.00;7.25;;;;;14.37;48.44;98351.53;4749319;29;103328;-75
2021/05/04 05:21:31;;;;;;;;;8.00;7.25;;;;;14.37;48.73;98354.25;4767839;29;102262;-75
2021/05/04 05:23:58;;;;;;;;;8.50;8.25;;;;;14.38;48.84;98349.66;4771739;29;104076;-75
2021/05/04 05:26:25;;;;;;;;;9.75;7.00;;;;;14.38;49.06;98350.47;4751959;29;103798;-75
2021/05/04 05:28:53;;;;;;;;;13.00;8.50;;;;;14.40;48.69;98347.53;4762823;29;103721;-75
2021/05/04 05:31:21;;;;;;;;;7.50;6.75;;;;;14.40;48.17;98342.09;4763203;29;102521;-75
2021/05/04 05:33:49;;;;;;;;;7.25;7.25;;;;;14.42;49.00;98342.69;4765688;29;104289;-76
2021/05/04 05:36:15;;;;;;;;;6.25;6.00;;;;;14.43;48.47;98338.91;4769262;29;102726;-75
2021/05/04 05:38:42;;;;;;;;;6.25;6.25;;;;;14.43;48.30;98341.63;4755160;29;102909;-75
2021/05/04 05:41:09;;;;;;;;;6.25;6.00;;;;;14.43;48.32;98330.75;4773932;29;102514;-75
2021/05/04 05:43:36;;;;;;;;;6.00;4.75;;;;;14.44;47.97;98329.69;4749378;29;104692;-75
2021/05/04 05:46:03;;;;;;;;;7.25;6.00;;;;;14.44;48.84;98326.97;4769331;29;104001;-75
2021/05/04 05:48:30;;;;;;;;;10.00;7.00;;;;;14.46;48.25;98327.53;4756198;29;102421;-76
2021/05/04 05:50:57;;;;;;;;;9.25;6.50;;;;;14.45;48.85;98329.47;4768560;29;103475;-75
2021/05/04 05:53:23;;;;;;;;;6.75;6.00;;;;;14.46;48.26;98324.81;4749532;29;104364;-75
2021/05/04 05:55:50;;;;;;;;;5.75;4.00;;;;;14.47;48.41;98311.00;4763445;29;103976;-75
2021/05/04 05:58:17;;;;;;;;;9.25;6.25;;;;;14.46;48.20;98313.94;4764289;29;102555;-75
2021/05/04 06:00:43;;;;;;;;;6.00;5.00;;;;;14.47;48.32;98312.88;4773967;29;102502;-75
2021/05/04 06:03:10;;;;;;;;;6.25;5.75;;;;;14.48;48.60;98311.84;4768695;29;104065;-76
2021/05/04 06:05:37;;;;;;;;;9.25;4.50;;;;;14.48;48.03;98290.06;4748110;29;103847;-76
2021/05/04 06:08:04;;;;;;;;;7.25;7.25;;;;;14.49;48.24;98286.28;4766667;29;102439;-75
2021/05/04 06:10:31;;;;;;;;;6.25;5.25;;;;;14.50;48.74;98288.75;4776724;29;104323;-75
2021/05/04 06:13:02;;;;;;;;;6.00;6.00;;;;;14.48;48.09;98281.91;4770033;29;104491;-75
2021/05/04 06:15:29;;;;;;;;;8.00;7.75;;;;;14.51;48.06;98273.28;4755479;29;102411;-75
2021/05/04 06:17:56;;;;;;;;;10.75;7.00;;;;;14.51;48.59;98260.50;4746541;29;103260;-75
2021/05/04 06:20:22;;;;;;;;;7.50;7.00;;;;;14.53;48.63;98261.09;4755247;29;103864;-75
2021/05/04 06:22:49;;;;;;;;;7.25;7.25;;;;;14.53;48.43;98254.84;4771950;29;105752;-75
2021/05/04 06:25:16;;;;;;;;;8.50;7.25;;;;;14.54;47.58;98262.78;4761072;29;102433;-75
2021/05/04 06:27:42;;;;;;;;;7.50;5.00;;;;;14.54;48.29;98251.06;4773579;29;104601;-75
2021/05/04 06:30:12;;;;;;;;;5.00;5.00;;;;;14.55;48.56;98247.25;4752250;29;102279;-75
2021/05/04 06:32:42;;;;;;;;;7.50;6.00;;;;;14.56;47.72;98240.75;4755020;29;108991;-75
2021/05/04 06:35:12;;;;;;;;;10.00;7.00;;;;;14.56;47.73;98238.84;4753220;29;104769;-75
2021/05/04 06:37:42;;;;;;;;;7.00;5.00;;;;;14.56;48.24;98238.03;4771840;29;102738;-75
2021/05/04 06:40:10;;;;;;;;;6.50;5.75;;;;;14.56;47.65;98235.31;4771494;29;103395;-75
2021/05/04 06:42:36;;;;;;;;;6.00;6.00;;;;;14.56;48.04;98222.53;4749945;29;104112;-75
2021/05/04 06:45:04;;;;;;;;;7.00;5.00;;;;;14.57;48.41;98226.91;4767861;29;104101;-75
2021/05/04 06:47:31;;;;;;;;;10.00;6.00;;;;;14.57;48.31;98218.75;4766124;29;102686;-75
2021/05/04 06:49:58;;;;;;;;;6.00;6.00;;;;;14.58;47.83;98219.59;4766845;29;102889;-75
2021/05/04 06:52:30;;;;;;;;;6.00;6.00;;;;;14.58;48.27;98216.88;4765162;29;104239;-75
2021/05/04 06:54:57;;;;;;;;;7.00;6.00;;;;;14.58;47.75;98211.44;4771060;29;103653;-75
2021/05/04 06:57:24;;;;;;;;;6.25;5.00;;;;;14.58;48.63;98212.25;4756977;29;102457;-76
2021/05/04 06:59:51;;;;;;;;;5.25;5.25;;;;;14.59;48.14;98203.00;4762803;29;103415;-75
2021/05/04 07:02:18;;;;;;;;;8.00;4.50;;;;;14.61;47.67;98205.50;4767210;29;104343;-75
2021/05/04 07:04:45;;;;;;;;;5.00;5.00;;;;;14.60;47.73;98196.50;4753215;29;102645;-76
2021/05/04 07:07:12;;;;;;;;;5.00;5.00;;;;;14.62;48.00;98201.72;4768803;29;103705;-75
2021/05/04 07:09:39;;;;;;;;;6.00;5.00;;;;;14.62;47.88;98188.94;4756235;29;102707;-75
2021/05/04 07:12:06;;;;;;;;;5.00;5.00;;;;;14.63;48.16;98179.69;4768827;29;104664;-76
2021/05/04 07:14:33;;;;;;;;;8.00;6.50;;;;;14.63;47.62;98178.91;4764255;29;102270;-75
2021/05/04 07:17:00;;;;;;;;;6.00;5.25;;;;;14.63;48.03;98171.53;4765309;29;102503;-75
2021/05/04 07:19:28;;;;;;;;;8.00;5.75;;;;;14.64;48.01;98172.38;4767611;29;103989;-75
2021/05/04 07:21:55;;;;;;;;;6.75;6.00;;;;;14.65;48.04;98163.13;4763525;29;104083;-76
2021/05/04 07:24:22;;;;;;;;;6.00;5.00;;;;;14.64;48.22;98156.03;4770585;29;102220;-75
2021/05/04 07:26:49;;;;;;;;;5.00;4.00;;;;;14.64;48.34;98154.16;4766704;29;102369;-75
2021/05/04 07:29:16;;;;;;;;;5.00;4.25;;;;;14.65;47.56;98153.09;4772047;29;102563;-75
2021/05/04 07:31:43;;;;;;;;;6.75;6.00;;;;;14.66;48.07;98148.47;4770334;29;104496;-75
2021/05/04 07:34:10;;;;;;;;;6.25;4.75;;;;;14.66;47.49;98145.75;4766722;29;102410;-75
2021/05/04 07:36:37;;;;;;;;;5.00;5.00;;;;;14.66;48.14;98141.16;4791407;29;102896;-75
2021/05/04 07:39:04;;;;;;;;;3.00;3.00;;;;;14.68;48.20;98132.72;4751259;29;102454;-75
2021/05/04 07:41:31;;;;;;;;;4.75;4.25;;;;;14.67;47.95;98134.66;4784017;29;104233;-76
2021/05/04 07:43:57;;;;;;;;;6.50;5.00;;;;;14.69;48.29;98128.94;4790799;29;102532;-75
2021/05/04 07:46:24;;;;;;;;;7.75;5.75;;;;;14.69;47.76;98120.78;4769296;29;104422;-75
2021/05/04 07:48:53;;;;;;;;;5.00;4.25;;;;;14.69;48.10;98113.44;4765758;29;104039;-75
2021/05/04 07:51:36;;;;;;;;;4.50;4.00;;;;;14.70;47.61;98106.13;4780748;29;104345;-75
2021/05/04 07:54:03;;;;;;;;;5.50;4.50;;;;;14.70;47.78;98108.84;4757746;29;102391;-75
2021/05/04 07:56:30;;;;;;;;;5.00;4.00;;;;;14.70;47.73;98103.38;4783472;29;110823;-75
2021/05/04 07:58:57;;;;;;;;;5.00;5.00;;;;;14.71;48.34;98100.44;4788531;29;102364;-75
2021/05/04 08:01:23;;;;;;;;;4.00;3.00;;;;;14.72;48.56;98099.34;4788433;29;104518;-75
2021/05/04 08:03:50;;;;;;;;;5.50;5.00;;;;;14.72;48.11;98101.28;4776797;29;104089;-75
2021/05/04 08:06:17;;;;;;;;;6.00;6.00;;;;;14.72;48.33;98107.50;4784575;29;102454;-75
2021/05/04 08:08:43;;;;;;;;;6.00;4.00;;;;;14.72;47.55;98090.38;4792059;29;102608;-75
2021/05/04 08:11:10;;;;;;;;;6.50;4.00;;;;;14.73;48.05;98092.00;4764438;29;108027;-75
2021/05/04 08:13:37;;;;;;;;;4.00;4.00;;;;;14.73;48.02;98086.56;4785220;29;103849;-75
2021/05/04 08:16:06;;;;;;;;;4.25;4.00;;;;;14.74;47.71;98088.22;4792847;29;102594;-75
2021/05/04 08:18:33;;;;;;;;;4.50;4.00;;;;;14.73;47.61;98076.53;4779381;29;102496;-75
2021/05/04 08:21:00;;;;;;;;;4.00;4.00;;;;;14.76;47.84;98074.41;4782451;29;104062;-75
2021/05/04 08:23:27;;;;;;;;;3.50;3.00;;;;;14.74;47.65;98071.91;4785407;29;102772;-75
2021/05/04 08:25:53;;;;;;;;;4.00;4.00;;;;;14.74;48.23;98074.63;4791776;29;102636;-75
2021/05/04 08:28:20;;;;;;;;;5.50;4.00;;;;;14.76;47.95;98067.06;4783675;29;103481;-75
2021/05/04 08:30:47;;;;;;;;;3.75;3.50;;;;;14.78;47.76;98069.53;4786950;29;104316;-75
2021/05/04 08:33:14;;;;;;;;;9.25;5.00;;;;;14.77;47.87;98065.97;4790611;29;102256;-75
2021/05/04 08:35:43;;;;;;;;;4.75;4.25;;;;;14.78;48.09;98061.34;4771265;29;102804;-75
2021/05/04 08:38:11;;;;;;;;;4.00;3.25;;;;;14.78;48.05;98051.31;4769718;29;102691;-75
2021/05/04 08:40:38;;;;;;;;;4.25;4.25;;;;;14.79;47.66;98058.41;4772537;29;104053;-75
2021/05/04 08:43:04;;;;;;;;;4.50;3.75;;;;;14.78;47.43;98054.03;4772069;29;102237;-76
2021/05/04 08:45:33;;;;;;;;;6.00;4.00;;;;;14.80;47.61;98060.06;4783021;29;102606;-75
2021/05/04 08:47:59;;;;;;;;;4.25;3.50;;;;;14.81;47.50;98053.56;4769735;29;102800;-75
2021/05/04 08:50:29;;;;;;;;;5.00;4.00;;;;;14.81;47.58;98061.72;4790359;29;104257;-75
2021/05/04 08:52:55;;;;;;;;;4.00;3.50;;;;;14.81;47.88;98033.69;4765245;29;102646;-75
2021/05/04 08:55:23;;;;;;;;;5.75;4.25;;;;;14.83;47.81;98045.13;4785427;29;102732;-75
2021/05/04 08:57:50;;;;;;;;;3.00;3.00;;;;;14.83;47.90;98035.06;4790736;29;102512;-75
2021/05/04 09:00:17;;;;;;;;;6.50;5.00;;;;;14.85;48.02;98037.56;4789456;29;104094;-75
2021/05/04 09:03:16;;;;;;;;;4.00;4.00;;;;;14.85;47.60;98023.97;4789504;29;102147;-75
2021/05/04 09:05:58;;;;;;;;;4.50;4.50;;;;;14.85;47.98;98015.78;4704704;29;102244;-75
2021/05/04 09:08:39;;;;;;;;;4.25;3.00;;;;;14.86;47.87;98026.41;4707896;29;102480;-75
2021/05/04 09:17:07;;;;;;;;;5.50;4.00;;;;;14.90;47.53;97997.66;4781071;29;102480;-76
2021/05/04 09:20:10;;;;;;;;;4.00;3.00;;;;;14.90;47.52;97996.84;4786241;29;102406;-75
2021/05/04 09:22:41;;;;;;;;;4.00;4.00;;;;;14.92;47.46;98005.56;4676706;29;108060;-75
2021/05/04 09:25:30;;;;;;;;;4.00;3.00;;;;;14.92;47.59;97989.25;4762164;29;102280;-75
2021/05/04 09:28:26;;;;;;;;;3.50;3.50;;;;;14.93;48.05;97994.44;4725932;29;102684;-76
2021/05/04 09:30:53;;;;;;;;;2.00;2.00;;;;;14.93;47.81;97988.19;4707063;29;102808;-75
2021/05/04 09:33:21;;;;;;;;;3.00;3.00;;;;;14.94;47.88;97978.94;4787425;29;104066;-75
2021/05/04 09:35:51;;;;;;;;;3.00;2.00;;;;;14.94;47.99;97974.34;4789403;29;102624;-75
2021/05/04 09:38:19;;;;;;;;;3.25;3.25;;;;;14.96;47.88;97971.34;4753657;29;102770;-76
2021/05/04 09:40:47;;;;;;;;;4.25;3.00;;;;;14.96;47.95;97963.19;4782541;29;103492;-75
2021/05/04 09:43:23;;;;;;;;;5.25;3.00;;;;;14.97;47.98;97965.66;4768664;29;108265;-75
2021/05/04 09:45:55;;;;;;;;;4.50;3.75;;;;;14.99;47.91;97954.53;4767968;29;102490;-76
2021/05/04 09:48:32;;;;;;;;;3.75;3.75;;;;;14.99;48.09;97944.47;4758343;29;106391;-76
2021/05/04 09:51:07;;;;;;;;;3.50;3.25;;;;;15.00;47.53;97939.84;4772058;29;103893;-75
2021/05/04 09:53:39;;;;;;;;;5.75;3.25;;;;;14.99;47.69;97933.59;4775276;29;105224;-75
2021/05/04 09:56:06;;;;;;;;;3.75;3.00;;;;;15.01;48.21;97931.44;4786351;29;103394;-75
2021/05/04 09:58:37;;;;;;;;;4.50;4.00;;;;;15.01;47.67;97915.09;4765257;29;105696;-75
2021/05/04 10:01:11;;;;;;;;;3.25;3.00;;;;;15.02;47.48;97919.47;4775081;29;102615;-75
2021/05/04 10:03:39;;;;;;;;;5.00;4.00;;;;;15.03;47.81;97906.69;4781777;29;104110;-75
2021/05/04 10:06:06;;;;;;;;;3.00;3.00;;;;;15.05;47.56;97909.97;4788802;29;102435;-75
2021/05/04 10:08:33;;;;;;;;;2.25;2.25;;;;;15.05;47.52;97894.47;4787995;29;102339;-75
2021/05/04 10:11:05;;;;;;;;;3.00;3.00;;;;;15.06;47.80;97882.50;4796759;29;102528;-75
2021/05/04 10:13:33;;;;;;;;;3.25;2.00;;;;;15.07;48.00;97881.44;4772793;29;104284;-75
2021/05/04 10:16:01;;;;;;;;;3.50;3.00;;;;;15.08;47.62;97883.06;4772241;29;103639;-75
2021/05/04 10:18:28;;;;;;;;;3.00;3.00;;;;;15.08;47.94;97872.19;4767142;29;102248;-76
2021/05/04 10:20:56;;;;;;;;;3.00;2.25;;;;;15.09;47.54;97873.00;4785361;29;104204;-75
2021/05/04 10:23:24;;;;;;;;;2.00;2.00;;;;;15.10;48.21;97874.66;4755414;29;104108;-76
2021/05/04 10:25:52;;;;;;;;;4.00;3.00;;;;;15.11;47.98;97858.09;4789752;29;102235;-76
2021/05/04 10:28:20;;;;;;;;;3.25;2.75;;;;;15.11;47.77;97860.81;4788498;29;102217;-75
2021/05/04 10:30:47;;;;;;;;;3.00;3.00;;;;;15.12;47.97;97840.69;4792934;29;103775;-75
2021/05/04 10:33:33;;;;;;;;;3.75;3.25;;;;;15.12;48.05;97854.31;4767074;29;109210;-76
2021/05/04 10:36:02;;;;;;;;;2.00;2.00;;;;;15.12;48.31;97835.25;4663224;29;102632;-76
2021/05/04 10:38:53;;;;;;;;;3.00;2.00;;;;;15.15;47.58;97850.25;4787560;29;102615;-75
2021/05/04 10:41:23;;;;;;;;;4.25;3.50;;;;;15.15;47.58;97833.91;4769734;29;102674;-76
2021/05/04 10:44:02;;;;;;;;;2.00;2.00;;;;;15.17;47.98;97838.00;4769921;29;104207;-75
2021/05/04 10:46:41;;;;;;;;;2.25;2.25;;;;;15.18;48.04;97825.22;4780694;29;102451;-75
2021/05/04 10:49:17;;;;;;;;;3.00;3.00;;;;;15.18;47.61;97839.66;4771183;29;103005;-75
2021/05/04 10:51:49;;;;;;;;;2.75;2.50;;;;;15.19;47.70;97835.88;4775856;29;104162;-76
2021/05/04 10:54:20;;;;;;;;;2.75;2.75;;;;;15.21;47.95;97821.19;4790152;29;109063;-75
2021/05/04 10:56:57;;;;;;;;;2.75;2.75;;;;;15.21;47.70;97816.59;4765735;29;102592;-75
2021/05/04 10:59:24;;;;;;;;;2.00;2.00;;;;;15.22;47.78;97801.88;4713984;29;108595;-76
2021/05/04 11:02:09;;;;;;;;;2.00;2.00;;;;;15.23;47.90;97802.69;4791125;29;102618;-76
2021/05/04 11:04:48;;;;;;;;;3.00;3.00;;;;;15.24;48.29;97798.91;4784957;29;104201;-75
2021/05/04 11:07:58;;;;;;;;;3.00;3.00;;;;;15.24;47.72;97788.84;4764780;29;102602;-76
2021/05/04 11:10:26;;;;;;;;;2.25;2.00;;;;;15.24;47.97;97794.28;4719745;29;102536;-76
2021/05/04 11:12:54;;;;;;;;;2.50;2.50;;;;;15.25;47.34;97793.22;4781076;29;102212;-76
2021/05/04 11:15:25;;;;;;;;;3.50;3.00;;;;;15.26;48.31;97794.88;4787279;29;104007;-76
2021/05/04 11:17:51;;;;;;;;;2.00;2.00;;;;;15.26;47.79;97773.09;4774869;29;102643;-75
2021/05/04 11:20:34;;;;;;;;;2.00;2.00;;;;;15.29;48.18;97786.19;4781761;29;103775;-76
2021/05/04 11:23:01;;;;;;;;;2.00;1.75;;;;;15.28;48.23;97784.53;4731824;29;102711;-76
2021/05/04 11:25:38;;;;;;;;;2.00;1.75;;;;;15.30;48.42;97776.94;4782960;29;104041;-76
2021/05/04 11:28:05;;;;;;;;;3.25;3.25;;;;;15.30;48.44;97759.78;4792212;29;104059;-75
2021/05/04 11:30:39;;;;;;;;;2.75;2.75;;;;;15.32;48.22;97765.78;4768627;29;103299;-75
2021/05/04 11:33:26;;;;;;;;;2.00;2.00;;;;;15.33;48.38;97756.53;4775861;29;102510;-75
2021/05/04 11:35:53;;;;;;;;;2.25;2.25;;;;;15.34;48.15;97758.19;4759670;29;109106;-75